Time;durP1;ratioP1;P1;durP2;ratioP2;P2;SDS_P1;SDS_P2;PMS_P1;PMS_P2;Temp;Humidity;BMP_temperature;BMP_pressure;BME280_temperature;BME280_humidity;BME280_pressure;Samples;Min_cycle;Max_cycle;Signal;HPM_P1;HPM_P2
2022/05/02 00:02:01;;;;;;;35.97;22.77;;;;;;;5.33;83.19;102154.25;6246016;23;20330;-80
2022/05/02 00:04:27;;;;;;;41.53;23.92;;;;;;;3.62;83.14;101873.50;6246034;23;20007;-79
2022/05/02 00:07:29;;;;;;;36.63;23.50;;;;;;;5.27;83.64;102150.06;6246097;23;20008;-79
2022/05/02 00:09:55;;;;;;;34.63;22.17;;;;;;;5.23;83.99;102143.34;6245653;23;20004;-80
2022/05/02 00:12:26;;;;;;;37.25;22.88;;;;;;;3.65;84.22;101887.09;6245885;23;20007;-80
2022/05/02 00:15:12;;;;;;;35.17;22.38;;;;;;;5.20;83.55;102140.81;6245612;23;20004;-80
2022/05/02 00:17:56;;;;;;;35.33;23.25;;;;;;;4.55;83.91;102049.06;6245096;23;20054;-80
2022/05/02 00:20:35;;;;;;;39.25;23.52;;;;;;;4.58;84.15;102048.16;6217281;23;20100;-77
2022/05/02 00:23:11;;;;;;;36.25;23.42;;;;;;;3.60;84.23;101886.31;6185689;23;20067;-77
2022/05/02 00:25:51;;;;;;;40.08;23.05;;;;;;;5.08;84.42;102141.06;6185177;23;20490;-77
2022/05/02 00:28:53;;;;;;;38.83;24.52;;;;;;;5.03;84.21;102128.34;6185572;23;20423;-77
2022/05/02 00:33:54;;;;;;;42.92;24.90;;;;;;;3.89;84.53;101959.06;6186971;22;20021;-80
2022/05/02 00:36:38;;;;;;;43.15;25.33;;;;;;;3.44;84.25;101884.88;6187113;23;20023;-79
2022/05/02 00:39:07;;;;;;;39.78;24.67;;;;;;;3.38;84.34;101880.72;6183296;23;20604;-80
2022/05/02 00:41:41;;;;;;;40.97;24.05;;;;;;;3.53;84.38;101912.81;6185334;23;20369;-79
2022/05/02 00:44:19;;;;;;;42.15;25.98;;;;;;;4.29;84.77;102018.84;6185245;23;20442;-79
2022/05/02 00:46:45;;;;;;;44.90;26.05;;;;;;;3.74;84.52;101939.75;6183692;23;20013;-80
2022/05/02 00:49:19;;;;;;;44.92;25.83;;;;;;;3.61;84.79;101928.03;6182521;23;20334;-80
2022/05/02 00:51:52;;;;;;;44.53;25.75;;;;;;;4.77;84.79;102117.75;6182545;23;20012;-80
2022/05/02 00:54:18;;;;;;;45.40;27.13;;;;;;;4.22;85.00;102034.31;6184759;23;20163;-79
2022/05/02 00:56:55;;;;;;;45.63;26.50;;;;;;;3.94;84.77;101990.50;6185142;23;20435;-80
2022/05/02 00:59:32;;;;;;;41.50;26.23;;;;;;;3.51;84.85;101921.38;6183786;23;20008;-80
2022/05/02 01:02:09;;;;;;;45.95;26.50;;;;;;;3.49;85.42;101921.41;6186206;23;20001;-80
2022/05/02 01:04:38;;;;;;;44.13;27.05;;;;;;;4.63;85.17;102115.44;6187086;23;20001;-81
2022/05/02 01:07:11;;;;;;;45.60;26.20;;;;;;;3.66;85.31;101962.00;6187321;23;20021;-80
2022/05/02 01:09:57;;;;;;;41.40;25.35;;;;;;;4.63;85.32;102120.56;6187165;23;20014;-81
2022/05/02 01:12:24;;;;;;;43.72;27.05;;;;;;;4.43;85.61;102099.59;6186613;23;20449;-80
2022/05/02 01:14:56;;;;;;;48.65;28.77;;;;;;;3.32;85.80;101924.22;6186937;23;20008;-80
2022/05/02 01:17:22;;;;;;;45.90;25.85;;;;;;;4.50;85.88;102111.41;6184114;23;20060;-82
2022/05/02 01:20:00;;;;;;;45.40;27.90;;;;;;;3.65;85.89;101975.66;6187244;23;20005;-80
2022/05/02 01:22:25;;;;;;;42.08;25.45;;;;;;;3.49;85.94;101944.38;6187303;23;20052;-82
2022/05/02 01:24:50;;;;;;;44.72;27.00;;;;;;;4.49;85.96;102115.69;6186991;23;20323;-82
2022/05/02 01:27:16;;;;;;;45.42;26.70;;;;;;;4.13;86.12;102070.25;6186762;23;20013;-82
2022/05/02 01:29:44;;;;;;;42.28;27.33;;;;;;;4.37;86.34;102104.81;6187224;23;20326;-81
2022/05/02 01:32:14;;;;;;;49.35;26.60;;;;;;;4.05;86.78;102065.28;6186785;23;20068;-82
2022/05/02 01:34:40;;;;;;;44.43;26.67;;;;;;;4.28;86.57;102119.44;6186941;23;20001;-81
2022/05/02 01:37:06;;;;;;;47.42;27.67;;;;;;;4.27;87.10;102109.25;6184966;23;20027;-81
2022/05/02 01:39:33;;;;;;;44.30;26.08;;;;;;;4.24;86.70;102109.28;6187266;23;20005;-82
2022/05/02 01:42:06;;;;;;;46.08;27.70;;;;;;;4.07;86.83;102095.94;6187091;23;20002;-82
2022/05/02 01:44:33;;;;;;;45.67;26.42;;;;;;;4.07;86.77;102095.94;6186899;23;20032;-82
2022/05/02 01:46:59;;;;;;;48.17;27.67;;;;;;;4.11;86.72;102105.22;6186552;23;20005;-82
2022/05/02 01:49:24;;;;;;;48.13;28.13;;;;;;;4.10;86.87;102104.38;6187168;23;20080;-80
2022/05/02 01:51:50;;;;;;;46.75;28.23;;;;;;;4.06;86.65;102104.47;6186717;23;20031;-82
2022/05/02 01:54:16;;;;;;;47.03;28.90;;;;;;;4.02;87.33;102107.06;6186793;23;20009;-82
2022/05/02 01:56:42;;;;;;;45.92;26.55;;;;;;;3.99;87.17;102101.16;6186837;23;20051;-80
2022/05/02 01:59:07;;;;;;;46.47;29.77;;;;;;;3.95;87.11;102102.09;6186972;23;20009;-81
2022/05/02 02:01:33;;;;;;;52.08;28.33;;;;;;;3.95;87.61;102096.97;6186327;23;20001;-81
2022/05/02 02:03:59;;;;;;;51.55;29.38;;;;;;;3.58;87.56;102045.56;6186463;23;20011;-80
2022/05/02 02:06:26;;;;;;;46.22;28.20;;;;;;;3.88;87.77;102096.22;6186841;23;20051;-80
2022/05/02 02:08:52;;;;;;;47.58;29.13;;;;;;;3.57;87.64;102046.44;6186628;23;20479;-80
2022/05/02 02:11:17;;;;;;;47.83;28.65;;;;;;;3.84;87.26;102096.28;6186278;23;20032;-81
2022/05/02 02:13:43;;;;;;;47.95;28.65;;;;;;;3.80;87.02;102100.59;6186375;23;20001;-80
2022/05/02 02:16:10;;;;;;;48.90;29.13;;;;;;;3.76;87.55;102098.94;6186767;23;20005;-80
2022/05/02 02:18:40;;;;;;;45.88;29.20;;;;;;;3.59;87.49;102071.06;6186492;23;20431;-80
2022/05/02 02:21:07;;;;;;;48.90;29.90;;;;;;;3.74;87.57;102101.53;6186850;23;20008;-82
2022/05/02 02:23:33;;;;;;;47.70;28.75;;;;;;;3.71;87.34;102101.56;6186381;23;20084;-80
2022/05/02 02:25:58;;;;;;;46.40;27.73;;;;;;;3.46;87.34;102061.91;6186214;23;20087;-80
2022/05/02 02:28:24;;;;;;;49.10;30.35;;;;;;;3.63;87.58;102108.47;6186381;23;20033;-79
2022/05/02 02:30:49;;;;;;;50.08;29.60;;;;;;;3.57;87.89;102087.28;6186568;23;20005;-79
2022/05/02 02:33:14;;;;;;;46.88;28.92;;;;;;;3.51;87.64;102085.66;6186118;23;20084;-80
2022/05/02 02:35:59;;;;;;;48.65;29.15;;;;;;;2.85;87.18;101979.34;6186092;22;20017;-80
2022/05/02 02:38:25;;;;;;;50.17;30.58;;;;;;;2.95;87.77;102002.16;6185077;22;20068;-80
2022/05/02 02:41:09;;;;;;;48.33;28.67;;;;;;;2.95;87.54;102002.16;6186310;23;20359;-80
2022/05/02 02:43:36;;;;;;;54.35;31.77;;;;;;;2.81;88.14;101979.38;6186072;23;20001;-79
2022/05/02 02:46:04;;;;;;;51.70;31.60;;;;;;;2.70;88.03;101976.13;6186390;23;20371;-79
2022/05/02 02:48:36;;;;;;;55.45;31.00;;;;;;;1.94;88.06;101852.94;6184978;22;20390;-80
2022/05/02 02:51:08;;;;;;;50.63;30.13;;;;;;;1.83;88.04;101829.28;6186404;23;20005;-80
2022/05/02 02:53:39;;;;;;;;;;;;;;;3.47;86.56;102084.03;6186611;23;20076;-80
2022/05/02 02:56:07;;;;;;;50.72;29.58;;;;;;;1.78;87.56;101816.63;6185764;23;19908;-80
2022/05/02 02:58:42;;;;;;;52.05;30.80;;;;;;;1.62;88.15;101790.47;6184282;23;20024;-80
2022/05/02 03:01:13;;;;;;;48.80;30.05;;;;;;;1.68;88.00;101798.06;6185986;23;20059;-80
2022/05/02 03:03:57;;;;;;;;;;;;;;;3.38;86.84;102067.13;6186980;23;20001;-80
2022/05/02 03:06:24;;;;;;;51.90;29.60;;;;;;;3.31;87.81;102065.50;6162428;23;19983;-80
2022/05/02 03:08:59;;;;;;;49.53;30.20;;;;;;;1.36;87.79;101762.72;6184117;23;20001;-80
2022/05/02 03:11:30;;;;;;;51.75;30.30;;;;;;;2.91;88.27;102015.81;6185603;23;20047;-80
2022/05/02 03:14:05;;;;;;;49.47;29.90;;;;;;;3.26;88.78;102063.88;6185848;23;20418;-80
2022/05/02 03:16:30;;;;;;;52.28;31.25;;;;;;;2.25;88.35;101910.34;6186055;23;20039;-80
2022/05/02 03:18:56;;;;;;;49.35;30.52;;;;;;;1.50;88.45;101793.16;6186254;23;20088;-80
2022/05/02 03:21:21;;;;;;;53.83;30.85;;;;;;;2.40;88.29;101946.72;6184445;22;20021;-81
2022/05/02 03:23:49;;;;;;;54.20;31.55;;;;;;;1.39;88.39;101783.06;6185222;23;20423;-79
2022/05/02 03:26:14;;;;;;;53.92;31.60;;;;;;;2.09;88.63;101908.00;6184536;23;20005;-80
2022/05/02 03:28:58;;;;;;;50.10;31.08;;;;;;;3.10;88.62;102066.63;6185614;23;20063;-80
2022/05/02 03:31:32;;;;;;;54.95;32.58;;;;;;;1.60;88.39;101838.00;6185576;23;20320;-80
2022/05/02 03:34:12;;;;;;;51.15;30.27;;;;;;;1.42;88.72;101793.22;6185582;23;20001;-80
2022/05/02 03:36:48;;;;;;;49.20;29.85;;;;;;;2.50;88.55;101973.81;6183201;23;20065;-80
2022/05/02 03:39:15;;;;;;;53.03;30.27;;;;;;;1.36;88.84;101795.81;6185396;23;20393;-80
2022/05/02 03:41:56;;;;;;;48.00;29.23;;;;;;;1.79;88.83;101869.22;6184222;23;20074;-80
2022/05/02 03:44:22;;;;;;;52.33;30.77;;;;;;;1.38;88.44;101794.13;6183648;23;20103;-80
2022/05/02 03:46:56;;;;;;;54.70;29.90;;;;;;;2.46;88.94;101972.13;6185583;23;20005;-80
2022/05/02 03:49:21;;;;;;;51.88;31.55;;;;;;;1.70;88.80;101857.44;6185714;23;20059;-79
2022/05/02 03:51:47;;;;;;;58.60;32.90;;;;;;;2.80;89.27;102033.81;6185215;23;20359;-80
2022/05/02 03:54:18;;;;;;;53.95;31.30;;;;;;;2.95;89.45;102058.28;6185718;23;20001;-80
2022/05/02 03:57:03;;;;;;;53.20;33.20;;;;;;;2.78;89.27;102036.38;6185492;23;20051;-81
2022/05/02 03:59:29;;;;;;;53.53;32.72;;;;;;;2.87;89.51;102054.13;6006275;23;20098;-80
2022/05/02 04:01:54;;;;;;;55.45;31.90;;;;;;;1.97;89.31;101911.50;6042167;23;20034;-80
2022/05/02 04:04:23;;;;;;;58.03;32.97;;;;;;;1.35;90.06;101790.72;6065384;23;20077;-80
2022/05/02 04:06:49;;;;;;;57.42;33.75;;;;;;;2.40;89.57;101979.84;6065864;23;20070;-79
2022/05/02 04:09:14;;;;;;;56.40;33.90;;;;;;;2.81;89.18;102051.66;6065755;23;20378;-80
2022/05/02 04:11:51;;;;;;;55.78;34.13;;;;;;;2.25;89.78;101953.66;6065609;23;20014;-79
2022/05/02 04:14:23;;;;;;;54.97;31.27;;;;;;;1.90;89.66;101908.16;6113105;22;20021;-80
2022/05/02 04:16:51;;;;;;;57.55;34.00;;;;;;;2.29;89.31;101967.22;6184449;22;20013;-80
2022/05/02 04:19:26;;;;;;;56.40;32.60;;;;;;;1.61;90.01;101856.69;6183573;23;20100;-79
2022/05/02 04:22:07;;;;;;;55.95;32.53;;;;;;;1.25;89.58;101792.53;6185622;23;20312;-80
2022/05/02 04:24:38;;;;;;;57.78;34.28;;;;;;;1.10;89.33;101760.44;6185141;23;20013;-80
2022/05/02 04:27:45;;;;;;;;;;;;;;;;;;;;;
2022/05/02 04:37:15;;;;;;;54.25;33.42;;;;;;;2.60;89.41;101975.38;6186019;23;20041;-81
2022/05/02 04:39:47;;;;;;;55.15;31.67;;;;;;;1.53;89.11;101794.81;6187310;23;20048;-81
2022/05/02 04:42:15;;;;;;;56.22;32.70;;;;;;;2.27;89.18;101901.00;6185816;23;20250;-81
2022/05/02 04:44:43;;;;;;;54.33;32.75;;;;;;;1.40;89.26;101749.13;6187162;23;20009;-81
2022/05/02 04:47:15;;;;;;;58.38;33.50;;;;;;;1.71;89.31;101776.78;6186973;23;20439;-81
2022/05/02 04:56:32;;;;;;;58.35;32.25;;;;;;;2.09;88.71;101776.34;6187149;23;20024;-81
2022/05/02 04:59:00;;;;;;;56.55;32.30;;;;;;;3.49;88.88;101992.06;6187255;23;20005;-81
2022/05/02 05:01:44;;;;;;;54.55;32.40;;;;;;;2.45;88.38;101792.84;6186834;23;20007;-82
2022/05/02 05:06:51;;;;;;;53.42;31.65;;;;;;;3.81;87.30;101956.63;6186534;22;20025;-82
2022/05/02 05:09:42;;;;;;;57.45;33.33;;;;;;;4.80;87.22;102072.47;6160985;23;20045;-81
2022/05/02 05:12:45;;;;;;;55.75;32.67;;;;;;;5.26;86.54;102078.41;6160187;23;20009;-82
2022/05/02 05:18:50;;;;;;;51.78;30.58;;;;;;;7.39;80.94;102062.75;6186997;23;20064;-81
2022/05/02 05:22:10;;;;;;;46.72;28.17;;;;;;;6.69;80.28;101915.88;6187010;23;20099;-82
2022/05/02 05:24:50;;;;;;;46.20;27.60;;;;;;;7.84;77.00;102071.63;6038567;23;20013;-82
2022/05/02 05:33:18;;;;;;;51.45;29.30;;;;;;;7.78;78.83;102071.84;6187168;23;20443;-82
2022/05/02 05:42:53;;;;;;;45.28;27.38;;;;;;;10.91;72.90;102053.03;6056641;23;20079;-81
2022/05/02 05:45:56;;;;;;;38.95;26.65;;;;;;;12.60;68.77;102050.06;6186564;23;20331;-78
2022/05/02 05:48:58;;;;;;;36.08;24.70;;;;;;;14.37;64.14;102057.53;6186524;23;20339;-81
2022/05/02 05:52:12;;;;;;;37.58;25.35;;;;;;;15.40;59.54;102049.47;6188669;22;20013;-81
2022/05/02 05:54:59;;;;;;;36.72;24.17;;;;;;;16.29;56.66;102054.91;6186625;23;20059;-82
2022/05/02 06:00:07;;;;;;;34.92;23.65;;;;;;;17.55;47.65;102054.78;6188729;23;20355;-82
2022/05/02 06:02:38;;;;;;;30.27;21.48;;;;;;;17.78;47.14;102046.97;6186823;23;20001;-82
2022/05/02 06:05:04;;;;;;;34.85;22.05;;;;;;;17.69;45.04;102013.66;6186474;23;20007;-75
2022/05/02 06:07:33;;;;;;;35.53;23.38;;;;;;;18.37;44.28;102056.47;6159724;23;20080;-81
2022/05/02 06:12:36;;;;;;;31.85;22.67;;;;;;;18.91;42.80;102055.81;6202028;22;20028;-84
2022/05/02 06:20:58;;;;;;;32.42;22.23;;;;;;;19.60;44.37;101975.16;6186909;23;20024;-81
2022/05/02 06:23:29;;;;;;;31.90;21.30;;;;;;;19.88;39.15;101973.69;6186858;23;20091;-82
2022/05/02 06:25:56;;;;;;;34.00;22.87;;;;;;;20.03;38.74;101955.81;6186391;23;20009;-82
2022/05/02 06:29:02;;;;;;;34.40;22.90;;;;;;;21.19;41.79;102058.59;6143391;23;20029;-81
2022/05/02 06:31:44;;;;;;;37.53;23.05;;;;;;;20.97;40.02;101982.66;6156548;23;20009;-81
2022/05/02 06:50:11;;;;;;;33.72;23.02;;;;;;;21.67;34.75;101866.75;6156666;23;20062;-82
2022/05/02 06:53:02;;;;;;;31.88;22.55;;;;;;;21.80;35.54;101850.63;6156403;23;20088;-81
2022/05/02 06:55:53;;;;;;;33.03;24.20;;;;;;;22.95;36.33;102053.75;6156354;23;20009;-81
2022/05/02 06:58:58;;;;;;;;;;;;;;;23.48;38.38;102053.78;6156589;23;20522;-82
2022/05/02 07:01:53;;;;;;;31.88;22.35;;;;;;;23.01;35.92;101983.81;6156208;23;19909;-81
2022/05/02 07:04:53;;;;;;;31.77;21.45;;;;;;;23.47;35.26;102053.94;6156649;23;20006;-81
2022/05/02 07:07:43;;;;;;;32.67;21.45;;;;;;;23.55;33.99;102048.75;6155939;23;20009;-81
2022/05/02 07:10:14;;;;;;;28.15;21.40;;;;;;;23.30;32.33;102047.69;6156524;23;20012;-81
2022/05/02 07:12:59;;;;;;;;;;;;;;;23.85;36.17;102049.34;6156892;23;20005;-81
2022/05/02 07:18:57;;;;;;;31.20;21.27;;;;;;;22.35;34.92;101939.31;6184354;23;20021;-81
2022/05/02 07:21:39;;;;;;;29.85;20.85;;;;;;;20.12;37.48;101985.66;6070576;23;20006;-81
2022/05/02 07:24:57;;;;;;;27.70;21.25;;;;;;;18.54;40.65;102057.81;6094697;23;20025;-81
2022/05/02 07:27:50;;;;;;;30.02;21.67;;;;;;;16.51;42.64;102007.34;6095163;23;20503;-77
2022/05/02 07:30:19;;;;;;;30.60;21.45;;;;;;;15.18;44.81;101985.78;6094614;23;20460;-80
2022/05/02 07:32:55;;;;;;;31.85;21.30;;;;;;;13.99;47.29;101922.97;6094590;23;20018;-78
2022/05/02 07:35:22;;;;;;;30.05;21.63;;;;;;;14.04;48.98;101996.22;6094639;23;20085;-80
2022/05/02 07:37:48;;;;;;;32.05;22.52;;;;;;;14.05;50.14;102064.59;6094794;23;20010;-79
2022/05/02 07:40:20;;;;;;;34.00;23.33;;;;;;;13.85;51.46;102064.91;6094454;23;20386;-80
2022/05/02 07:42:47;;;;;;;35.55;24.08;;;;;;;13.65;52.48;102056.47;6094634;23;20018;-79
2022/05/02 07:45:17;;;;;;;32.35;22.83;;;;;;;13.52;53.32;102065.88;6094569;23;20097;-80
2022/05/02 07:47:44;;;;;;;35.08;25.17;;;;;;;13.47;53.53;102070.50;6094593;23;20006;-80
2022/05/02 07:50:11;;;;;;;32.17;24.58;;;;;;;13.38;54.24;102071.00;6094561;23;20433;-80
2022/05/02 07:52:40;;;;;;;34.08;24.92;;;;;;;13.35;53.87;102061.63;6094709;23;20010;-79
2022/05/02 07:55:07;;;;;;;34.53;24.58;;;;;;;13.43;53.71;102058.59;6110971;23;20012;-76
2022/05/02 07:57:37;;;;;;;31.95;23.38;;;;;;;13.14;53.23;102022.09;6185710;23;20032;-79
2022/05/02 08:00:04;;;;;;;37.80;23.95;;;;;;;13.18;52.47;102030.56;6185746;23;20008;-80
2022/05/02 08:02:30;;;;;;;34.22;23.08;;;;;;;13.47;53.54;102057.53;6185360;23;20021;-78
2022/05/02 08:04:57;;;;;;;32.53;22.05;;;;;;;13.20;53.43;102005.41;6184833;23;20040;-81
2022/05/02 08:07:43;;;;;;;36.40;21.95;;;;;;;13.35;52.62;102019.28;6184015;22;20017;-79
2022/05/02 08:14:25;;;;;;;32.08;21.35;;;;;;;13.66;51.25;102059.91;6036941;23;20083;-81
2022/05/02 08:17:15;;;;;;;30.48;21.70;;;;;;;13.72;51.77;102063.00;6008599;23;20053;-83
2022/05/02 08:20:09;;;;;;;36.03;22.17;;;;;;;13.81;51.04;102058.22;6008336;23;20015;-81
2022/05/02 08:33:18;;;;;;;;;;;;;;;14.07;50.11;102054.97;6185692;23;20020;-79
2022/05/02 08:36:05;;;;;;;30.55;18.70;;;;;;;14.00;48.89;102054.47;6185346;23;19943;-81
2022/05/02 08:38:58;;;;;;;27.83;18.08;;;;;;;13.86;46.91;102030.22;6185623;23;20001;-80
2022/05/02 08:41:33;;;;;;;27.27;18.05;;;;;;;13.99;45.64;102055.41;6185223;23;20059;-80
2022/05/02 08:44:14;;;;;;;29.13;18.00;;;;;;;14.07;47.30;102050.63;6185908;23;20351;-87
2022/05/02 08:46:58;;;;;;;30.25;17.63;;;;;;;14.25;47.73;102051.28;6185460;23;20009;-77
2022/05/02 08:49:48;;;;;;;26.58;17.10;;;;;;;14.23;46.61;102053.13;6185397;23;20088;-79
2022/05/02 08:52:22;;;;;;;24.52;16.98;;;;;;;14.33;47.01;102051.66;6185336;23;20032;-75
2022/05/02 08:55:09;;;;;;;29.58;17.40;;;;;;;14.20;45.91;102052.50;6185541;23;20005;-85
2022/05/02 08:57:53;;;;;;;28.88;17.83;;;;;;;13.92;46.27;102048.88;6185312;23;20411;-82
2022/05/02 09:00:49;;;;;;;27.67;17.27;;;;;;;13.86;46.20;102044.03;6185314;23;20024;-81
2022/05/02 09:03:50;;;;;;;29.55;17.80;;;;;;;13.92;47.24;102015.13;6185125;23;20009;-81
2022/05/02 09:06:40;;;;;;;28.35;18.48;;;;;;;14.28;46.97;102042.47;6185060;23;20005;-83
2022/05/02 09:09:39;;;;;;;30.20;17.40;;;;;;;14.31;45.69;102026.72;6185142;23;20012;-83
2022/05/02 09:12:33;;;;;;;23.45;16.75;;;;;;;14.47;44.81;102048.28;6185045;23;20001;-82
2022/05/02 09:14:58;;;;;;;24.02;14.93;;;;;;;14.48;43.38;102047.38;6185410;23;20088;-83
2022/05/02 09:17:23;;;;;;;23.27;16.35;;;;;;;14.53;43.18;102034.91;6184251;23;20355;-79
2022/05/02 09:20:10;;;;;;;26.33;15.68;;;;;;;14.62;43.89;102044.75;6185038;23;20084;-81
2022/05/02 09:22:51;;;;;;;24.52;15.45;;;;;;;14.62;42.96;102044.75;6185311;23;20084;-85
2022/05/02 09:25:38;;;;;;;23.10;15.23;;;;;;;14.74;43.62;102042.34;6186855;23;20005;-83
2022/05/02 09:28:20;;;;;;;23.63;15.00;;;;;;;14.68;43.99;102006.31;6186782;23;20009;-81
2022/05/02 09:56:39;;;;;;;25.25;13.77;;;;;;;15.19;43.06;102010.88;6186528;23;20016;-81
2022/05/02 09:59:29;;;;;;;23.77;14.48;;;;;;;15.18;40.87;102017.00;6186580;23;20092;-80
2022/05/02 10:02:48;;;;;;;29.20;13.75;;;;;;;15.21;41.89;102016.81;6186575;23;20011;-81
2022/05/02 10:17:58;;;;;;;23.33;14.40;;;;;;;15.31;42.62;102009.25;6186585;23;20398;-81
2022/05/02 10:24:20;;;;;;;24.40;12.68;;;;;;;15.53;40.88;102019.09;6186488;23;20389;-80
2022/05/02 10:27:26;;;;;;;30.48;12.85;;;;;;;15.51;41.26;102007.97;6109118;23;20135;-80
2022/05/02 10:30:56;;;;;;;22.70;13.63;;;;;;;14.65;40.59;101856.56;6186820;23;20009;-82
2022/05/02 10:33:52;;;;;;;19.63;13.15;;;;;;;14.82;38.73;101897.06;6184444;23;20390;-78
2022/05/02 10:36:50;;;;;;;21.83;14.77;;;;;;;15.47;40.26;102001.28;6159775;23;20443;-81
2022/05/02 10:39:48;;;;;;;25.67;15.85;;;;;;;15.45;40.85;101995.34;6159735;23;20378;-79
2022/05/02 10:42:18;;;;;;;23.90;14.38;;;;;;;14.72;42.27;101841.41;6186363;23;20001;-80
2022/05/02 10:44:50;;;;;;;21.27;14.85;;;;;;;15.72;41.26;101988.34;6186621;23;20401;-81
2022/05/02 10:47:20;;;;;;;23.67;14.65;;;;;;;15.79;38.93;101991.41;6186393;23;20086;-80
2022/05/02 10:49:54;;;;;;;24.63;15.15;;;;;;;15.92;40.04;101979.22;6186404;23;20443;-80
2022/05/02 10:52:42;;;;;;;21.52;14.32;;;;;;;15.94;40.14;101982.56;6159649;23;20378;-80
2022/05/02 10:55:18;;;;;;;24.73;15.38;;;;;;;15.96;40.36;101979.84;6160719;23;20005;-81
2022/05/02 10:58:04;;;;;;;23.50;15.48;;;;;;;15.89;39.90;101960.34;6186629;23;20029;-79
2022/05/02 11:00:31;;;;;;;22.38;14.77;;;;;;;15.94;39.78;101966.94;6186654;23;20005;-80
2022/05/02 11:03:36;;;;;;;22.10;14.80;;;;;;;16.00;39.25;101979.53;6159705;23;20024;-81
2022/05/02 11:06:07;;;;;;;22.98;14.40;;;;;;;16.04;40.03;101965.38;6186277;23;20009;-82
2022/05/02 11:08:42;;;;;;;21.90;15.40;;;;;;;15.99;38.42;101964.00;6185778;23;20005;-81
2022/05/02 11:11:08;;;;;;;22.48;15.60;;;;;;;15.81;39.55;101937.44;6185680;23;20092;-80
2022/05/02 11:13:57;;;;;;;24.30;15.30;;;;;;;16.02;41.22;101945.56;6186326;23;20084;-80
2022/05/02 11:16:26;;;;;;;24.65;16.27;;;;;;;16.20;40.27;101961.72;6186382;23;20013;-79
2022/05/02 11:22:17;;;;;;;23.58;15.98;;;;;;;16.09;40.36;101959.84;6185975;23;20020;-79
2022/05/02 11:24:58;;;;;;;25.10;17.38;;;;;;;16.00;41.32;101935.25;6153922;23;20092;-81
2022/05/02 11:27:36;;;;;;;25.48;17.05;;;;;;;16.24;39.12;101953.59;6185923;23;20012;-79
2022/05/02 11:30:10;;;;;;;23.13;15.23;;;;;;;16.25;40.54;101923.97;6186235;23;20375;-81
2022/05/02 11:32:37;;;;;;;25.40;14.90;;;;;;;16.52;39.42;101947.28;6160112;23;20374;-78
2022/05/02 11:35:11;;;;;;;26.98;15.15;;;;;;;16.61;40.62;101949.22;6185644;23;20024;-81
2022/05/02 11:37:49;;;;;;;31.00;17.73;;;;;;;16.51;39.19;101950.81;6159507;23;20031;-81
2022/05/02 11:40:16;;;;;;;25.65;17.23;;;;;;;16.14;38.77;101923.88;6185691;23;20008;-80
2022/05/02 11:42:45;;;;;;;27.20;18.40;;;;;;;16.11;39.99;101939.72;6186082;23;20011;-80
2022/05/02 11:45:13;;;;;;;24.58;16.88;;;;;;;16.23;40.95;101945.88;6185531;23;20040;-80
2022/05/02 11:48:00;;;;;;;27.85;17.33;;;;;;;16.24;39.46;101942.34;6185755;23;20013;-81
2022/05/02 11:50:27;;;;;;;26.85;16.85;;;;;;;15.95;39.99;101890.44;6186031;23;20075;-80
2022/05/02 11:52:59;;;;;;;25.27;16.50;;;;;;;16.28;41.09;101933.34;6185883;23;20005;-79
2022/05/02 11:55:30;;;;;;;25.42;16.65;;;;;;;16.34;39.06;101940.75;6159104;23;20398;-82
2022/05/02 11:58:19;;;;;;;24.52;16.42;;;;;;;16.39;38.88;101940.41;6185604;23;20005;-82
2022/05/02 12:00:51;;;;;;;23.55;16.33;;;;;;;16.42;38.94;101940.19;6184684;23;20005;-81
2022/05/02 12:03:24;;;;;;;26.52;17.23;;;;;;;16.34;38.69;101933.75;6185767;23;20005;-82
2022/05/02 12:06:01;;;;;;;36.85;15.63;;;;;;;16.48;40.07;101934.56;6185589;23;20001;-79
2022/05/02 12:08:46;;;;;;;27.10;16.73;;;;;;;16.34;38.79;101910.31;6185501;23;20001;-82
2022/05/02 12:11:15;;;;;;;28.35;16.90;;;;;;;16.51;38.15;101936.94;6185299;23;20047;-79
2022/05/02 12:13:47;;;;;;;27.02;17.50;;;;;;;16.59;39.02;101937.25;6185611;23;20055;-82
2022/05/02 12:16:17;;;;;;;28.08;17.15;;;;;;;16.26;38.53;101891.75;6185478;23;20449;-81
2022/05/02 12:18:42;;;;;;;26.40;17.23;;;;;;;16.54;38.58;101939.38;6185510;23;20005;-81
2022/05/02 12:21:11;;;;;;;26.10;17.10;;;;;;;16.59;38.64;101938.06;6185743;23;20047;-81
2022/05/02 12:23:41;;;;;;;27.55;16.48;;;;;;;16.56;38.20;101929.66;6185299;23;20001;-80
2022/05/02 12:26:16;;;;;;;27.13;17.00;;;;;;;16.50;37.59;101919.63;6185539;23;20032;-81
2022/05/02 12:28:51;;;;;;;25.67;16.05;;;;;;;16.59;38.69;101914.59;6185625;23;20001;-80
2022/05/02 12:31:43;;;;;;;26.33;16.35;;;;;;;16.62;38.61;101901.38;6185535;23;20004;-80
2022/05/02 12:34:11;;;;;;;24.85;16.65;;;;;;;16.74;36.53;101927.53;6159450;23;20005;-79
2022/05/02 12:36:45;;;;;;;25.27;16.65;;;;;;;16.76;38.19;101920.44;6185521;23;20009;-80
2022/05/02 12:39:28;;;;;;;28.00;17.00;;;;;;;16.69;36.94;101896.56;6185160;23;20092;-81
2022/05/02 12:42:07;;;;;;;25.40;15.68;;;;;;;16.83;37.41;101892.97;6185455;23;20001;-79
2022/05/02 12:45:13;;;;;;;24.02;15.00;;;;;;;16.58;37.16;101852.13;6185495;23;20005;-81
2022/05/02 12:47:51;;;;;;;22.98;14.43;;;;;;;16.86;37.20;101874.47;6037182;23;20018;-79
2022/05/02 12:50:21;;;;;;;22.50;13.70;;;;;;;17.16;36.06;101924.44;6037207;23;20059;-81
2022/05/02 12:52:50;;;;;;;20.48;14.10;;;;;;;17.01;35.74;101896.88;6036899;23;20453;-81
2022/05/02 12:55:17;;;;;;;24.52;15.60;;;;;;;17.03;36.18;101904.56;6036875;23;20012;-81
2022/05/02 13:01:01;;;;;;;27.23;18.38;;;;;;;15.98;36.73;101720.06;6189750;22;20028;-81
2022/05/02 13:03:28;;;;;;;23.25;16.73;;;;;;;16.31;37.76;101759.31;6187654;23;20005;-81
2022/05/02 13:06:16;;;;;;;24.92;16.38;;;;;;;17.26;37.46;101895.88;6187143;23;20005;-81
2022/05/02 13:08:48;;;;;;;24.73;16.10;;;;;;;15.99;37.06;101714.72;6187184;23;20012;-81
2022/05/02 13:11:28;;;;;;;23.48;16.30;;;;;;;16.95;38.18;101884.25;6187351;23;20001;-79
2022/05/02 13:14:02;;;;;;;28.40;17.60;;;;;;;16.13;37.91;101763.28;6187031;23;20326;-79
2022/05/02 13:16:46;;;;;;;23.55;16.25;;;;;;;16.95;37.40;101889.47;6185999;23;20001;-83
2022/05/02 13:30:02;;;;;;;28.25;18.02;;;;;;;17.33;37.90;101876.19;6187108;23;20016;-80
2022/05/02 13:32:33;;;;;;;24.55;16.48;;;;;;;17.22;36.87;101867.50;6187341;23;20005;-83
2022/05/02 13:35:45;;;;;;;27.38;17.20;;;;;;;17.24;36.90;101871.66;6184440;23;20036;-84
2022/05/02 13:42:04;;;;;;;26.52;16.90;;;;;;;17.33;37.63;101870.97;6186594;23;20137;-84
2022/05/02 13:44:52;;;;;;;25.45;16.65;;;;;;;17.23;36.88;101862.16;6186873;23;20338;-82
2022/05/02 13:47:26;;;;;;;25.67;17.25;;;;;;;17.26;36.21;101863.72;6186792;23;20486;-81
2022/05/02 13:50:01;;;;;;;26.27;17.08;;;;;;;17.28;37.51;101856.59;6187098;23;20012;-85
2022/05/02 13:52:30;;;;;;;23.30;15.25;;;;;;;17.36;37.13;101859.47;6186677;23;20415;-80
2022/05/02 13:54:55;;;;;;;26.52;16.33;;;;;;;17.36;35.87;101852.47;6186570;23;20040;-79
2022/05/02 13:57:57;;;;;;;26.10;16.73;;;;;;;17.45;36.42;101850.94;6186932;23;20059;-89
2022/05/02 14:04:02;;;;;;;23.55;14.65;;;;;;;17.67;37.81;101840.50;6184592;22;20032;-78
2022/05/02 14:06:34;;;;;;;26.17;16.83;;;;;;;17.66;35.81;101832.78;6186664;23;20009;-78
2022/05/02 14:09:55;;;;;;;26.25;16.13;;;;;;;17.59;36.33;101832.44;6186599;23;20005;-78
2022/05/02 14:12:21;;;;;;;23.83;16.02;;;;;;;17.64;35.44;101834.72;6185895;23;20013;-79
2022/05/02 14:14:59;;;;;;;26.30;16.67;;;;;;;17.63;35.50;101844.31;6186700;23;20004;-79
2022/05/02 14:17:34;;;;;;;30.33;17.85;;;;;;;17.37;35.76;101814.97;6186756;23;20004;-79
2022/05/02 14:20:08;;;;;;;28.58;17.13;;;;;;;17.44;35.52;101826.59;6160364;23;20311;-78
2022/05/02 14:22:34;;;;;;;28.23;18.35;;;;;;;17.38;35.72;101829.69;6186330;23;20142;-79
2022/05/02 14:25:00;;;;;;;26.75;16.77;;;;;;;17.44;35.81;101837.06;6186558;23;20009;-79